Whitleys Peak, Santa Catalina Island Weather observations

Data are for 10 minute period ending at time listed.
 Day   Time   Solar   Ave.   Ave.  Ave.  Vector    Max.   Stn.    Total
  of    of     Rad.   Air    Rel.  Wind   Wind     Wind   Baro.  Precip.
Year   Day            Temp.  Hum.  Speed  Dir.     Gust   Pres.         
2016   (PST)   W/m2    F      %     mph   deg.      mph    mb.     in.  
------------------------------------------------------------------------
 345    0:00    0.0    55   98.3     6    268.8     9.0    999.0   0.00  
 345    0:10    0.0    55   98.4     7    269.6     9.6    999.0   0.00  
 345    0:20    0.0    55   98.4     9    255.2    14.3    999.0   0.00  
 345    0:30    0.0    55   98.5    11    238.0    16.7    999.0   0.00  
 345    0:40    0.0    55   98.5    10    243.8    16.1    999.0   0.00  
 345    0:50    0.0    55   98.5    12    245.7    16.7    999.0   0.00  
 345    1:00    0.0    55   98.6    13    253.7    17.3    999.0   0.00  
 345    1:10    0.0    55   98.6    11    255.8    15.5    999.0   0.00  
 345    1:20    0.0    55   98.6     9    262.9    12.5    999.0   0.00  
 345    1:30    0.0    55   98.6     8    267.2    11.3    999.0   0.00  
 345    1:40    0.0    55   98.6    10    264.9    14.3    999.0   0.00  
 345    1:50    0.0    55   98.7    12    254.5    17.3    999.0   0.00  
 345    2:00    0.0    55   98.7    12    246.3    16.1    999.0   0.00  
 345    2:10    0.0    54   98.7     4    263.5     9.6    999.0   0.00  
 345    2:20    0.0    54   98.7     6    255.7     9.0    999.0   0.00  
 345    2:30    0.0    54   98.7     4    253.7     8.4    999.0   0.00  
 345    2:40    0.0    54   98.7     6    230.9     9.6    999.0   0.00  
 345    2:50    0.0    54   98.7     5    218.5     7.2    999.0   0.00  
 345    3:00    0.0    54   98.7     7    245.8    12.5    999.0   0.00  
 345    3:10    0.0    54   98.8    13    235.4    18.5    999.0   0.00  
 345    3:20    0.0    54   98.8     9    231.5    13.7    999.0   0.00  
 345    3:30    0.0    55   98.8    10    229.2    15.5    999.0   0.00  
 345    3:40    0.0    55   98.8    10    230.9    19.1    999.0   0.00  
 345    3:50    0.0    55   98.8    10    217.7    15.5    999.0   0.00  
 345    4:00    0.0    55   98.8    10    239.5    13.7    999.0   0.00  
 345    4:10    0.0    55   98.8    10    244.3    15.5    999.0   0.00  
 345    4:20    0.0    55   98.8     8    247.8    11.3    999.0   0.00  
 345    4:30    0.0    55   98.8     9    241.1    14.9    999.0   0.00  
 345    4:40    0.0    55   98.9    11    244.7    17.9    999.0   0.00  
 345    4:50    0.0    55   98.9    12    240.6    20.9    999.0   0.00  
 345    5:00    0.0    55   98.9    10    237.9    19.1    999.0   0.00  
 345    5:10    0.0    55   98.9     6    230.8    10.2    999.0   0.00  
 345    5:20    0.0    55   98.9     6    223.2    11.3    999.0   0.00  
 345    5:30    0.0    55   98.9     7    213.3    10.8    999.0   0.00  
 345    5:40    0.0    55   98.9     8    219.0    11.9    999.0   0.00  
 345    5:50    0.0    55   98.9     7    216.2    10.8    999.0   0.00  
 345    6:00    0.0    55   98.9    10    219.0    13.1    999.0   0.00  
 345    6:10    0.0    55   98.9    13    228.0    16.1    999.0   0.00  
 345    6:20    0.0    55   98.9    15    230.4    17.9    999.0   0.00  
 345    6:30    0.0    55   98.9    13    228.4    17.9    999.0   0.00  
 345    6:40    1.0    55   98.9    14    231.4    18.5    999.0   0.00  
 345    6:50    5.0    55   98.9    11    249.0    17.3    999.0   0.00  
 345    7:00    5.0    55   98.9    13    243.0    19.7    999.0   0.00  
 345    7:10   15.0    54   98.9     8    238.2    11.9    999.0   0.00  
 345    7:20   23.0    54   98.9     9    249.7    11.3    999.0   0.00  
 345    7:30   14.0    54   98.9     7    257.7    11.9    999.0   0.00  
 345    7:40   19.0    55   98.9     9    250.7    19.7    999.0   0.00  
 345    7:50   21.0    55   99.0    12    241.2    16.1    999.0   0.00  
 345    8:00   53.0    54   99.0    11    251.8    16.7    999.0   0.00  
 345    8:10  117.0    55   99.0     9    248.8    13.7    999.0   0.00  
 345    8:20  119.0    54   99.0    14    280.3    23.3    999.0   0.00  
 345    8:30  130.0    54   99.0    13    280.6    17.9    999.0   0.00  
 345    8:40   72.0    54   99.0    12    272.6    16.1    999.0   0.00  
 345    8:50   48.0    54   99.0    12    281.6    18.5    999.0   0.00  
 345    9:00   72.0    54   99.0    13    292.0    17.9    999.0   0.00  
 345    9:10   54.0    55   99.0    11    290.4    17.3    999.0   0.00  
 345    9:20   69.0    55   99.0    11    278.8    17.9    999.0   0.00  
 345    9:30   75.0    55   99.0     8    283.5    11.3    999.0   0.00  
 345    9:40   67.0    55   99.0     7    263.0    12.5    999.0   0.00  
 345    9:50   88.0    55   99.0     9    266.5    14.9    999.0   0.00  
 345   10:00  189.0    55   99.0     7    240.4    11.9    999.0   0.00  
 345   10:10  163.0    56   99.0     7    256.5    12.5    999.0   0.00  
 345   10:20  154.0    56   99.0     6    256.3    11.3    999.0   0.00  
 345   10:30  202.0    56   99.0     7    253.3    12.5    999.0   0.00  
 345   10:40  161.0    56   99.0     6    270.4    10.8    999.0   0.00  
 345   10:50  113.0    56   99.0     6    272.5    11.9    999.0   0.00  
 345   11:00   91.0    56   99.0     7    267.9    14.9    999.0   0.00  
 345   11:10  124.0    56   99.0     8    291.8    11.9    999.0   0.00  
 345   11:20   96.0    56   99.0     6    336.2     8.4    999.0   0.00  
 345   11:30  105.0    56   99.0     4    311.8     7.2    999.0   0.00  
 345   11:40  102.0    56   99.0     3    334.7     5.4    999.0   0.00  
 345   11:50  105.0    56   99.0     2    269.4     6.6    999.0   0.00  
 345   12:00  107.0    56   99.0     4    220.9     6.0    999.0   0.00  
 345   12:10  109.0    56   99.0     3    242.5     4.2    999.0   0.00  
 345   12:20  103.0    57   99.0     2    236.3     4.2    999.0   0.00  
 345   12:30  140.0    57   99.0     3    274.3     5.4    999.0   0.00  
 345   12:40  163.0    56   99.0     5    245.9     7.8    999.0   0.00  
 345   12:50  126.0    57   99.0     5    292.4     7.2    999.0   0.00  
 345   13:00   94.0    57   99.0     3    282.3     5.4    999.0   0.00  
 345   13:10  115.0    57   98.9     2    317.0     5.4    999.0   0.00  
 345   13:20  106.0    57   98.9     2     26.0     3.6    999.0   0.00  
 345   13:30  137.0    57   98.9     2    197.1     5.4    999.0   0.00  
 345   13:40  130.0    57   98.8     5    218.1    10.2    999.0   0.00  
 345   13:50  134.0    57   98.7     2    286.5     6.0    999.0   0.00  
 345   14:00  143.0    57   98.6     5    274.7    10.2    999.0   0.00  
 345   14:10  144.0    57   98.3     4    269.8     7.8    999.0   0.00  
 345   14:20  129.0    57   98.1     6    276.1    12.5    999.0   0.00  
 345   14:30   60.0    57   98.2     4    344.4     6.6    999.0   0.00  
 345   14:40   37.0    56   98.3     4    309.5     7.8    999.0   0.00  
 345   14:50   38.0    56   98.4     6    269.8     9.6    999.0   0.00  
 345   15:00   50.0    56   98.5     6    259.0     9.0    999.0   0.00  
 345   15:10   48.0    56   98.6     2    265.9     7.8    999.0   0.00  
 345   15:20   58.0    56   98.7     4    279.8     9.0    999.0   0.00  
 345   15:30   49.0    56   98.7     2    290.2     4.2    999.0   0.00  
 345   15:40   36.0    56   98.7     1    330.8     4.2    999.0   0.00  
 345   15:50   21.0    56   98.7     4    331.0     8.4    999.0   0.00  
 345   16:00   26.0    56   98.8     3    307.3     6.0    999.0   0.00  
 345   16:10   38.0    56   98.8     3    358.8     5.4    999.0   0.00  
 345   16:20   23.0    56   98.8     2    241.1     6.0    999.0   0.00  
 345   16:30   16.0    56   98.8     4    272.9     9.6    999.0   0.00  
 345   16:40    8.0    56   98.9     1    257.9     3.6    999.0   0.00  
 345   16:50    5.0    56   98.9     3    277.8     6.0    999.0   0.00  
 345   17:00    0.0    56   98.9     4    238.6     7.2    999.0   0.00  
 345   17:10    0.0    55   98.9     5    229.1     8.4    999.0   0.00  
 345   17:20    0.0    55   98.9     3    249.5     5.4    999.0   0.00  
 345   17:30    0.0    55   98.9     5    220.9     7.8    999.0   0.00  
 345   17:40    0.0    55   99.0     6    234.1    10.8    999.0   0.00  
 345   17:50    0.0    55   99.0     6    236.5    11.3    999.0   0.00  
 345   18:00    0.0    55   99.0     4    256.8     8.4    999.0   0.00  
 345   18:10    0.0    55   99.0     3    237.7    11.9    999.0   0.00  
 345   18:20    0.0    56   99.0     2    193.2     6.6    999.0   0.00  
 345   18:30    0.0    55   99.0     4    201.6     7.2    999.0   0.00  
 345   18:40    0.0    55   99.0     5    217.3     7.8    999.0   0.00  
 345   18:50    0.0    55   99.0     4    222.4     6.0    999.0   0.00  
 345   19:00    0.0    55   99.1     4    220.7     6.0    999.0   0.00  
 345   19:10    0.0    55   99.1     6    195.6     9.6    999.0   0.00  
 345   19:20    0.0    55   99.1     6    206.8     9.0    999.0   0.00  
 345   19:30    0.0    55   99.1     6    223.7     9.6    999.0   0.00  
 345   19:40    0.0    55   99.1     5    227.6     7.2    999.0   0.00  
 345   19:50    0.0    55   99.1     6    237.8    10.8    999.0   0.00  
 345   20:00    0.0    55   99.1     9    238.2    17.9    999.0   0.00  
 345   20:10    0.0    55   99.1     6    206.2     7.8    999.0   0.00  
 345   20:20    0.0    55   99.1     6    214.0     8.4    999.0   0.00  
 345   20:30    0.0    55   99.1     6    216.6     9.6    999.0   0.00  
 345   20:40    0.0    55   99.1     7    242.3    10.8    999.0   0.00  
 345   20:50    0.0    55   99.1     4    217.6     6.6    999.0   0.00  
 345   21:00    0.0    55   99.1     6    217.9     8.4    999.0   0.00  
 345   21:10    0.0    55   99.1     8    242.2    13.7    999.0   0.00  
 345   21:20    0.0    55   99.2     6    240.4    10.8    999.0   0.00  

Return to Whitleys Peak graphs page.


Western Regional Climate Center,wrcc@dri.edu